createdAt,value
2019-05-20T00:00:36.619Z,11.53
2019-05-20T00:03:09.598Z,15.03
2019-05-20T00:05:42.792Z,10.10
2019-05-20T00:08:15.808Z,11.65
2019-05-20T00:10:48.716Z,11.22
2019-05-20T00:13:21.692Z,13.53
2019-05-20T00:15:54.490Z,11.45
2019-05-20T00:18:27.358Z,12.05
2019-05-20T00:21:00.180Z,17.67
2019-05-20T00:23:33.110Z,23.60
2019-05-20T00:26:05.993Z,24.70
2019-05-20T00:28:38.856Z,23.07
2019-05-20T00:31:12.258Z,32.88
2019-05-20T00:33:45.143Z,94.10
2019-05-20T00:36:18.115Z,79.05
2019-05-20T00:39:08.850Z,48.73
2019-05-20T00:41:41.676Z,36.20
2019-05-20T00:44:14.623Z,40.25
2019-05-20T00:46:47.452Z,40.12
2019-05-20T00:49:20.367Z,47.48
2019-05-20T00:51:53.279Z,40.67
2019-05-20T00:54:26.074Z,39.83
2019-05-20T00:56:58.873Z,23.77
2019-05-20T00:59:31.785Z,18.42
2019-05-20T01:02:04.647Z,15.60
2019-05-20T01:04:37.645Z,13.48
2019-05-20T01:07:10.739Z,14.33
2019-05-20T01:09:43.519Z,13.43
2019-05-20T01:12:16.396Z,17.80
2019-05-20T01:14:49.223Z,17.23
2019-05-20T01:17:22.086Z,20.55
2019-05-20T01:19:54.920Z,26.07
2019-05-20T01:22:27.788Z,24.00
2019-05-20T01:25:01.707Z,23.75
2019-05-20T01:27:34.554Z,16.55
2019-05-20T01:30:07.681Z,17.50
2019-05-20T01:32:41.917Z,14.55
2019-05-20T01:35:16.214Z,18.23
2019-05-20T01:37:49.108Z,20.52
2019-05-20T01:40:21.984Z,18.82
2019-05-20T01:42:55.290Z,23.60
2019-05-20T01:45:28.107Z,17.87
2019-05-20T01:48:00.923Z,15.03
2019-05-20T01:50:33.775Z,19.37
2019-05-20T01:53:06.570Z,20.55
2019-05-20T01:55:39.424Z,20.12
2019-05-20T01:58:12.564Z,18.70
2019-05-20T02:00:45.446Z,20.97
2019-05-20T02:03:31.004Z,19.70
2019-05-20T02:05:52.998Z,16.80
2019-05-20T02:08:25.838Z,19.02
2019-05-20T02:10:58.723Z,17.73
2019-05-20T02:13:56.930Z,15.08
2019-05-20T02:16:29.789Z,22.05
2019-05-20T02:19:02.599Z,25.12
2019-05-20T02:21:35.669Z,15.20
2019-05-20T02:24:09.572Z,15.83
2019-05-20T02:26:42.498Z,19.98
2019-05-20T02:29:15.320Z,21.15
2019-05-20T02:31:48.372Z,23.18
2019-05-20T02:34:21.139Z,25.77
2019-05-20T02:36:53.967Z,18.87
2019-05-20T02:39:27.084Z,23.25
2019-05-20T02:41:59.938Z,20.12
2019-05-20T02:44:32.756Z,22.48
2019-05-20T02:47:06.686Z,20.23
2019-05-20T02:49:39.493Z,23.40
2019-05-20T02:52:12.359Z,27.15
2019-05-20T02:54:45.170Z,31.17
2019-05-20T02:57:18.024Z,27.95
2019-05-20T02:59:50.887Z,18.80
2019-05-20T03:02:23.704Z,16.93
2019-05-20T03:04:56.641Z,23.30
2019-05-20T03:07:29.445Z,23.90
2019-05-20T03:10:02.345Z,24.65
2019-05-20T03:12:36.299Z,27.05
2019-05-20T03:15:09.343Z,24.45
2019-05-20T03:17:42.141Z,28.77
2019-05-20T03:20:15.378Z,23.35
2019-05-20T03:22:48.612Z,17.55
2019-05-20T03:25:21.593Z,21.15
2019-05-20T03:27:54.424Z,21.00
2019-05-20T03:30:27.295Z,20.57
2019-05-20T03:33:00.101Z,22.82
2019-05-20T03:35:32.988Z,26.80
2019-05-20T03:38:05.831Z,33.08
2019-05-20T03:40:38.605Z,21.00
2019-05-20T03:43:11.511Z,22.17
2019-05-20T03:45:44.427Z,20.70
2019-05-20T03:48:17.230Z,28.45
2019-05-20T03:50:50.133Z,25.90
2019-05-20T03:53:23.390Z,30.30
2019-05-20T03:55:56.188Z,30.00
2019-05-20T03:58:29.086Z,26.85
2019-05-20T04:01:01.958Z,18.62
2019-05-20T04:03:34.868Z,17.07
2019-05-20T04:06:07.677Z,21.00
2019-05-20T04:08:40.613Z,22.35
2019-05-20T04:11:13.424Z,19.48
2019-05-20T04:13:46.260Z,23.05
2019-05-20T04:16:19.135Z,28.60
2019-05-20T04:18:54.275Z,31.15
2019-05-20T04:21:26.434Z,28.05
2019-05-20T04:24:01.420Z,20.57
2019-05-20T04:26:33.894Z,15.63
2019-05-20T04:29:06.804Z,19.70
2019-05-20T04:31:39.672Z,20.97
2019-05-20T04:34:12.494Z,21.68
2019-05-20T04:36:45.370Z,21.50
2019-05-20T04:39:18.197Z,24.63
2019-05-20T04:41:50.997Z,26.62
2019-05-20T04:44:23.926Z,26.97
2019-05-20T04:46:58.070Z,28.23
2019-05-20T04:49:31.096Z,16.05
2019-05-20T04:52:04.018Z,16.40
2019-05-20T04:54:36.861Z,25.62
2019-05-20T04:57:09.857Z,15.85
2019-05-20T04:59:42.654Z,16.90
2019-05-20T05:02:15.544Z,23.98
2019-05-20T05:04:48.368Z,22.85
2019-05-20T05:07:21.243Z,21.82
2019-05-20T05:09:54.111Z,22.17
2019-05-20T05:12:27.020Z,24.72
2019-05-20T05:14:59.798Z,20.50
2019-05-20T05:17:32.640Z,16.57
2019-05-20T05:20:05.892Z,18.32
2019-05-20T05:22:39.185Z,17.07
2019-05-20T05:25:13.275Z,17.48
2019-05-20T05:27:46.036Z,17.10
2019-05-20T05:30:18.992Z,17.48
2019-05-20T05:32:51.936Z,16.10
2019-05-20T05:35:24.856Z,24.55
2019-05-20T05:37:57.834Z,22.52
2019-05-20T05:40:32.422Z,21.17
2019-05-20T05:43:05.380Z,20.65
2019-05-20T05:45:39.251Z,24.37
2019-05-20T05:48:12.373Z,30.15
2019-05-20T05:50:45.217Z,24.35
2019-05-20T05:53:18.054Z,20.30
2019-05-20T05:55:50.888Z,16.97
2019-05-20T05:58:23.768Z,20.15
2019-05-20T06:00:56.638Z,18.57
2019-05-20T06:03:29.562Z,23.15
2019-05-20T06:06:12.280Z,24.15
2019-05-20T06:08:37.286Z,20.05
2019-05-20T06:11:10.075Z,22.37
2019-05-20T06:13:42.977Z,23.62
2019-05-20T06:16:15.853Z,19.15
2019-05-20T06:18:48.688Z,20.40
2019-05-20T06:21:21.466Z,20.25
2019-05-20T06:23:54.304Z,19.02
2019-05-20T06:26:27.067Z,18.62
2019-05-20T06:29:02.906Z,19.37
2019-05-20T06:31:34.446Z,18.82
2019-05-20T06:34:07.234Z,19.98
2019-05-20T06:36:44.484Z,24.37
2019-05-20T06:39:17.327Z,22.60
2019-05-20T06:41:50.132Z,20.80
2019-05-20T06:44:23.101Z,18.82
2019-05-20T06:46:56.046Z,28.32
2019-05-20T06:49:29.043Z,26.55
2019-05-20T06:52:01.951Z,22.55
2019-05-20T06:54:34.813Z,18.20
2019-05-20T06:57:07.722Z,18.07
2019-05-20T06:59:41.707Z,17.48
2019-05-20T07:02:14.546Z,18.73
2019-05-20T07:04:47.441Z,16.65
2019-05-20T07:07:21.453Z,20.05
2019-05-20T07:09:55.535Z,18.92
2019-05-20T07:12:40.511Z,21.65
2019-05-20T07:15:04.205Z,18.65
2019-05-20T07:17:38.592Z,27.15
2019-05-20T07:20:11.457Z,18.37
2019-05-20T07:22:55.152Z,17.10
2019-05-20T07:25:19.518Z,17.77
2019-05-20T07:27:52.450Z,15.75
2019-05-20T07:30:25.458Z,21.35
2019-05-20T07:32:58.311Z,19.62
2019-05-20T07:35:31.558Z,15.70
2019-05-20T07:38:04.658Z,18.65
2019-05-20T07:40:37.725Z,21.95
2019-05-20T07:43:10.528Z,18.15
2019-05-20T07:45:43.873Z,19.60
2019-05-20T07:48:17.673Z,31.37
2019-05-20T07:50:51.023Z,29.42
2019-05-20T07:53:24.408Z,27.13
2019-05-20T07:56:07.104Z,36.23
2019-05-20T07:58:43.419Z,33.60
2019-05-20T08:01:16.393Z,26.60
2019-05-20T08:03:49.178Z,26.65
2019-05-20T08:06:22.369Z,28.67
2019-05-20T08:08:55.321Z,22.30
2019-05-20T08:11:28.271Z,29.18
2019-05-20T08:14:01.065Z,24.52
2019-05-20T08:16:34.239Z,24.85
2019-05-20T08:19:07.293Z,21.17
2019-05-20T08:21:40.093Z,28.05
2019-05-20T08:24:12.968Z,25.43
2019-05-20T08:26:45.934Z,31.60
2019-05-20T08:29:18.720Z,26.55
2019-05-20T08:31:51.498Z,28.00
2019-05-20T08:34:24.349Z,27.27
2019-05-20T08:36:57.118Z,27.22
2019-05-20T08:39:29.936Z,35.05
2019-05-20T08:42:02.739Z,32.23
2019-05-20T08:44:35.717Z,32.88
2019-05-20T08:47:08.607Z,30.82
2019-05-20T08:49:41.598Z,29.98
2019-05-20T08:52:15.875Z,22.80
2019-05-20T08:54:48.734Z,30.90
2019-05-20T08:57:21.503Z,26.37
2019-05-20T08:59:54.388Z,31.20
2019-05-20T09:02:27.231Z,34.10
2019-05-20T09:05:00.084Z,35.35
2019-05-20T09:07:32.871Z,29.20
2019-05-20T09:10:06.189Z,36.30
2019-05-20T09:12:39.360Z,34.27
2019-05-20T09:15:12.747Z,28.87
2019-05-20T09:17:45.663Z,29.65
2019-05-20T09:20:19.586Z,28.20
2019-05-20T09:22:52.608Z,30.45
2019-05-20T09:25:32.917Z,34.67
2019-05-20T09:28:06.102Z,29.20
2019-05-20T09:30:39.647Z,32.80
2019-05-20T09:33:12.951Z,35.20
2019-05-20T09:35:45.845Z,27.15
2019-05-20T09:38:21.608Z,35.78
2019-05-20T09:40:54.532Z,38.25
2019-05-20T09:43:27.413Z,35.08
2019-05-20T09:46:07.823Z,33.85
2019-05-20T09:48:35.019Z,34.75
2019-05-20T09:51:08.208Z,34.05
2019-05-20T09:53:41.075Z,34.50
2019-05-20T09:56:13.966Z,38.10
2019-05-20T09:58:46.791Z,33.63
2019-05-20T10:01:19.673Z,37.03
2019-05-20T10:03:52.611Z,32.83
2019-05-20T10:06:26.367Z,40.40
2019-05-20T10:08:59.310Z,36.73
2019-05-20T10:11:32.443Z,36.53
2019-05-20T10:14:05.314Z,37.98
2019-05-20T10:16:38.086Z,39.40
2019-05-20T10:19:10.859Z,34.95
2019-05-20T10:21:43.826Z,31.93
2019-05-20T10:24:16.805Z,31.20
2019-05-20T10:26:49.744Z,31.33
2019-05-20T10:29:22.616Z,43.20
2019-05-20T10:31:55.459Z,32.05
2019-05-20T10:34:28.309Z,29.55
2019-05-20T10:37:01.204Z,31.80
2019-05-20T10:39:34.094Z,29.12
2019-05-20T10:42:06.869Z,35.80
2019-05-20T10:44:41.871Z,34.48
2019-05-20T10:47:14.166Z,31.25
2019-05-20T10:49:47.938Z,39.10
2019-05-20T10:52:20.774Z,33.33
2019-05-20T10:54:53.700Z,30.27
2019-05-20T10:57:26.576Z,31.10
2019-05-20T10:59:59.578Z,35.38
2019-05-20T11:02:32.441Z,33.65
2019-05-20T11:05:05.953Z,33.65
2019-05-20T11:07:38.801Z,32.05
2019-05-20T11:10:11.944Z,42.25
2019-05-20T11:12:44.809Z,35.35
2019-05-20T11:15:17.992Z,30.70
2019-05-20T11:17:51.008Z,35.08
2019-05-20T11:20:23.817Z,34.23
2019-05-20T11:22:58.887Z,28.67
2019-05-20T11:25:31.269Z,28.23
2019-05-20T11:28:04.047Z,32.70
2019-05-20T11:30:37.027Z,31.85
2019-05-20T11:33:09.875Z,24.70
2019-05-20T11:35:42.746Z,24.02
2019-05-20T11:38:16.494Z,27.07
2019-05-20T11:40:50.507Z,32.20
2019-05-20T11:43:23.303Z,27.00
2019-05-20T11:45:56.138Z,29.82
2019-05-20T11:48:29.268Z,30.23
2019-05-20T11:51:02.174Z,27.98
2019-05-20T11:53:35.151Z,28.52
2019-05-20T11:56:11.801Z,32.20
2019-05-20T11:58:42.817Z,26.27
2019-05-20T12:01:15.741Z,29.42
2019-05-20T12:03:48.608Z,29.92
2019-05-20T12:06:21.726Z,29.87
2019-05-20T12:08:54.595Z,24.77
2019-05-20T12:11:27.430Z,24.98
2019-05-20T12:14:00.270Z,29.90
2019-05-20T12:16:33.105Z,26.40
2019-05-20T12:19:05.961Z,26.15
2019-05-20T12:21:38.796Z,30.62
2019-05-20T12:24:11.627Z,28.92
2019-05-20T12:26:45.509Z,28.10
2019-05-20T12:29:18.429Z,37.93
2019-05-20T12:31:51.268Z,29.57
2019-05-20T12:34:24.114Z,26.75
2019-05-20T12:36:56.941Z,33.05
2019-05-20T12:39:29.888Z,30.80
2019-05-20T12:42:02.923Z,33.15
2019-05-20T12:44:35.849Z,37.28
2019-05-20T12:47:08.781Z,27.30
2019-05-20T12:49:41.654Z,27.75
2019-05-20T12:52:14.504Z,31.12
2019-05-20T12:55:04.123Z,26.15
2019-05-20T12:57:21.937Z,25.02
2019-05-20T12:59:54.845Z,26.75
2019-05-20T13:02:27.772Z,28.40
2019-05-20T13:05:00.745Z,30.23
2019-05-20T13:07:33.695Z,24.67
2019-05-20T13:10:26.639Z,25.57
2019-05-20T13:12:43.379Z,23.73
2019-05-20T13:15:16.652Z,28.50
2019-05-20T13:17:49.454Z,23.42
2019-05-20T13:20:23.093Z,22.55
2019-05-20T13:22:55.931Z,23.80
2019-05-20T13:25:28.770Z,24.52
2019-05-20T13:28:01.655Z,22.42
2019-05-20T13:46:54.679Z,23.52
2019-05-20T13:49:30.497Z,25.17
2019-05-20T13:52:09.663Z,22.52
2019-05-20T13:54:42.827Z,19.00
2019-05-20T13:57:15.803Z,22.73
2019-05-20T13:59:49.829Z,23.73
2019-05-20T14:02:24.095Z,23.70
2019-05-20T14:04:56.983Z,22.98
2019-05-20T14:07:29.906Z,25.75
2019-05-20T14:10:02.831Z,17.98
2019-05-20T14:12:36.719Z,17.57
2019-05-20T14:15:11.526Z,19.92
2019-05-20T14:17:44.906Z,21.27
2019-05-20T14:20:18.230Z,17.85
2019-05-20T14:22:51.594Z,20.02
2019-05-20T14:25:24.690Z,19.12
2019-05-20T14:27:57.700Z,22.07
2019-05-20T14:30:30.699Z,21.05
2019-05-20T14:33:03.869Z,30.50
2019-05-20T14:35:37.086Z,22.90
2019-05-20T14:38:11.661Z,21.25
2019-05-20T14:40:45.107Z,23.45
2019-05-20T14:43:17.982Z,27.75
2019-05-20T14:45:53.726Z,18.52
2019-05-20T14:48:26.692Z,22.80
2019-05-20T14:50:59.682Z,13.35
2019-05-20T14:53:32.957Z,11.38
2019-05-20T14:56:07.939Z,18.10
2019-05-20T14:58:41.170Z,11.03
2019-05-20T15:01:14.321Z,11.68
2019-05-20T15:03:47.453Z,13.08
2019-05-20T15:06:20.485Z,19.82
2019-05-20T15:08:53.599Z,10.53
2019-05-20T15:11:37.745Z,10.88
2019-05-20T15:14:01.036Z,14.45
2019-05-20T15:16:36.916Z,10.10
2019-05-20T15:19:10.127Z,8.30
2019-05-20T15:21:43.178Z,5.95
2019-05-20T15:24:16.512Z,9.90
2019-05-20T15:26:52.849Z,9.38
2019-05-20T15:29:28.323Z,17.27
2019-05-20T15:32:00.374Z,10.65
2019-05-20T15:34:33.273Z,8.48
2019-05-20T15:37:07.230Z,7.37
2019-05-20T15:39:40.108Z,7.10
2019-05-20T15:42:12.994Z,6.30
2019-05-20T15:44:46.212Z,8.38
2019-05-20T15:47:19.262Z,7.15
2019-05-20T15:49:52.246Z,7.53
2019-05-20T15:52:25.248Z,6.65
2019-05-20T15:54:58.211Z,8.90
2019-05-20T15:57:31.085Z,10.65
2019-05-20T16:00:04.022Z,5.45
2019-05-20T16:02:38.429Z,4.40
2019-05-20T16:05:11.405Z,8.48
2019-05-20T16:07:44.408Z,3.90
2019-05-20T16:10:17.270Z,2.40
2019-05-20T16:12:50.161Z,2.85
2019-05-20T16:15:23.100Z,1.95
2019-05-20T16:17:56.766Z,2.50
2019-05-20T16:20:29.809Z,1.80
2019-05-20T16:23:03.073Z,4.72
2019-05-20T16:25:36.155Z,6.80
2019-05-20T16:28:09.128Z,2.87
2019-05-20T16:30:43.007Z,5.05
2019-05-20T16:33:16.101Z,2.45
2019-05-20T16:35:49.217Z,3.62
2019-05-20T16:38:22.245Z,2.60
2019-05-20T16:40:55.319Z,2.77
2019-05-20T16:43:28.185Z,4.37
2019-05-20T16:46:01.037Z,2.62
2019-05-20T16:48:34.975Z,4.33
2019-05-20T16:51:07.908Z,2.08
2019-05-20T16:53:41.026Z,6.72
2019-05-20T16:56:14.049Z,9.53
2019-05-20T16:58:46.995Z,6.00
2019-05-20T17:01:19.940Z,2.37
2019-05-20T17:03:52.977Z,6.90
2019-05-20T17:06:27.630Z,3.85
2019-05-20T17:09:00.944Z,7.28
2019-05-20T17:11:35.789Z,9.48
2019-05-20T17:14:10.663Z,4.78
2019-05-20T17:16:43.733Z,2.15
2019-05-20T17:19:16.727Z,7.97
2019-05-20T17:21:49.715Z,2.92
2019-05-20T17:24:22.657Z,3.05
2019-05-20T17:26:55.716Z,3.92
2019-05-20T17:29:28.849Z,3.02
2019-05-20T17:32:01.882Z,5.33
2019-05-20T17:34:35.003Z,5.05
2019-05-20T17:37:09.248Z,6.33
2019-05-20T17:39:42.297Z,7.20
2019-05-20T17:42:15.451Z,8.73
2019-05-20T17:44:48.388Z,4.42
2019-05-20T17:47:21.493Z,2.87
2019-05-20T17:49:54.466Z,2.60
2019-05-20T17:52:27.379Z,3.58
2019-05-20T17:55:00.289Z,2.80
2019-05-20T17:57:33.425Z,2.65
2019-05-20T18:00:08.892Z,3.83
2019-05-20T18:02:42.702Z,4.17
2019-05-20T18:05:15.719Z,2.95
2019-05-20T18:07:48.719Z,2.83
2019-05-20T18:10:24.787Z,2.72
2019-05-20T18:12:57.704Z,5.15
2019-05-20T18:15:30.642Z,3.62
2019-05-20T18:18:03.495Z,5.90
2019-05-20T18:20:36.318Z,4.75
2019-05-20T18:23:09.238Z,7.85
2019-05-20T18:25:42.151Z,9.95
2019-05-20T18:28:15.129Z,10.55
2019-05-20T18:30:48.109Z,7.47
2019-05-20T18:33:21.071Z,8.08
2019-05-20T18:35:55.099Z,7.10
2019-05-20T18:38:28.135Z,6.80
2019-05-20T18:41:01.159Z,7.90
2019-05-20T18:43:34.181Z,4.12
2019-05-20T18:46:07.122Z,5.10
2019-05-20T18:48:40.032Z,4.80
2019-05-20T18:51:13.101Z,5.92
2019-05-20T18:53:46.107Z,8.83
2019-05-20T18:56:19.152Z,7.53
2019-05-20T18:58:52.215Z,7.00
2019-05-20T19:01:25.150Z,8.83
2019-05-20T19:03:58.215Z,10.30
2019-05-20T19:06:31.279Z,11.60
2019-05-20T19:09:05.169Z,11.78
2019-05-20T19:11:38.332Z,13.10
2019-05-20T19:14:11.256Z,9.88
2019-05-20T19:16:44.232Z,15.88
2019-05-20T19:19:17.079Z,10.93
2019-05-20T19:21:49.922Z,13.95
2019-05-20T19:24:22.830Z,9.03
2019-05-20T19:26:55.760Z,9.90
2019-05-20T19:29:28.671Z,9.93
2019-05-20T19:32:02.413Z,13.38
2019-05-20T19:34:35.493Z,12.30
2019-05-20T19:37:08.550Z,18.80
2019-05-20T19:39:41.475Z,13.25
2019-05-20T19:42:14.485Z,30.20
2019-05-20T19:44:47.356Z,19.45
2019-05-20T19:47:20.352Z,30.27
2019-05-20T19:49:53.347Z,21.17
2019-05-20T19:52:26.478Z,25.17
2019-05-20T19:54:59.395Z,33.65
2019-05-20T19:57:32.435Z,23.20
2019-05-20T20:00:06.383Z,19.12
2019-05-20T20:02:40.814Z,19.27
2019-05-20T20:05:13.647Z,20.95
2019-05-20T20:07:46.659Z,21.33
2019-05-20T20:10:20.078Z,33.20
2019-05-20T20:12:53.087Z,34.25
2019-05-20T20:15:26.030Z,29.20
2019-05-20T20:17:59.039Z,29.92
2019-05-20T20:20:33.311Z,30.97
2019-05-20T20:23:06.137Z,57.60
2019-05-20T20:25:39.182Z,54.10
2019-05-20T20:28:12.050Z,53.80
2019-05-20T20:30:44.987Z,42.13
2019-05-20T20:33:18.945Z,43.00
2019-05-20T20:35:52.351Z,47.45
2019-05-20T20:38:25.238Z,34.40
2019-05-20T20:40:58.092Z,31.82
2019-05-20T20:43:32.224Z,35.63
2019-05-20T20:46:05.317Z,31.48
2019-05-20T20:48:38.212Z,30.20
2019-05-20T20:51:11.182Z,31.40
2019-05-20T20:53:44.173Z,37.13
2019-05-20T20:56:25.367Z,37.33
2019-05-20T20:58:51.901Z,42.40
2019-05-20T21:01:24.813Z,34.88
2019-05-20T21:03:57.911Z,29.45
2019-05-20T21:06:30.793Z,35.25
2019-05-20T21:09:04.681Z,35.48
2019-05-20T21:11:37.748Z,26.97
2019-05-20T21:14:10.647Z,29.20
2019-05-20T21:16:43.560Z,36.80
2019-05-20T21:19:16.381Z,35.58
2019-05-20T21:21:49.269Z,31.12
2019-05-20T21:24:22.326Z,29.15
2019-05-20T21:26:55.122Z,24.87
2019-05-20T21:29:27.954Z,28.87
2019-05-20T21:32:00.869Z,26.07
2019-05-20T21:34:33.750Z,24.60
2019-05-20T21:37:06.623Z,23.87
2019-05-20T21:39:39.473Z,23.65
2019-05-20T21:42:12.504Z,18.35
2019-05-20T21:44:45.394Z,18.80
2019-05-20T21:47:18.362Z,17.90
2019-05-20T21:49:51.252Z,18.48
2019-05-20T21:52:24.223Z,20.77
2019-05-20T21:54:57.015Z,24.57
2019-05-20T21:57:29.931Z,31.15
2019-05-20T22:00:02.807Z,37.98
2019-05-20T22:02:37.210Z,31.12
2019-05-20T22:05:10.534Z,35.90
2019-05-20T22:07:43.395Z,40.92
2019-05-20T22:10:16.312Z,31.90
2019-05-20T22:12:49.180Z,39.20
2019-05-20T22:15:22.200Z,29.32
2019-05-20T22:17:55.291Z,28.62
2019-05-20T22:20:28.101Z,36.85
2019-05-20T22:23:22.821Z,34.58
2019-05-20T22:25:55.691Z,38.42
2019-05-20T22:28:28.763Z,43.78
2019-05-20T22:31:01.682Z,43.98
2019-05-20T22:33:41.314Z,40.63
2019-05-20T22:36:09.281Z,35.03
2019-05-20T22:38:42.188Z,35.95
2019-05-20T22:41:15.158Z,34.40
2019-05-20T22:43:48.341Z,35.83
2019-05-20T22:46:21.278Z,41.37
2019-05-20T22:48:54.207Z,37.90
2019-05-20T22:51:27.126Z,29.35
2019-05-20T22:54:00.105Z,28.95
2019-05-20T22:56:33.269Z,32.33
2019-05-20T22:59:06.149Z,31.65
2019-05-20T23:01:39.085Z,32.55
2019-05-20T23:04:12.091Z,26.10
2019-05-20T23:06:45.175Z,27.70
2019-05-20T23:09:18.016Z,22.73
2019-05-20T23:11:50.995Z,16.93
2019-05-20T23:14:23.988Z,20.15
2019-05-20T23:16:56.887Z,18.27
2019-05-20T23:19:29.789Z,17.23
2019-05-20T23:22:02.931Z,21.48
2019-05-20T23:24:36.053Z,24.72
2019-05-20T23:27:08.865Z,17.87
2019-05-20T23:29:41.756Z,12.25
2019-05-20T23:32:14.545Z,10.08
2019-05-20T23:34:47.402Z,14.13
2019-05-20T23:37:20.296Z,16.70
2019-05-20T23:39:53.246Z,19.77
2019-05-20T23:42:26.158Z,18.17
2019-05-20T23:44:58.937Z,19.60
2019-05-20T23:47:31.799Z,17.17
2019-05-20T23:50:04.803Z,20.08
2019-05-20T23:52:37.603Z,21.48
2019-05-20T23:55:11.049Z,20.85
2019-05-20T23:57:43.907Z,17.32
